Terminal Aerodrome Forecast
Issued by NWS

Home | Current Version | Previous Version | Text Only | Print | Product List | Glossary On
Versions: 1 2 3 4 5 6 7 8 9 10 11 12
980
FTUS43 KTOP 072323
TAFMHK
TAF
KMHK 072323Z 0800/0824 31013G20KT P6SM BKN070
     FM080800 31014G22KT P6SM SCT020 OVC035
     FM081500 32017G27KT P6SM SCT025
     FM081800 33025G36KT P6SM SCT050=

USA.gov is the U.S. government's official web portal to all federal, state and local government web resources and services.